createdAt,value
2018-05-18T00:00:52.228Z,0.00
2018-05-18T00:01:52.152Z,0.00
2018-05-18T00:02:52.065Z,0.00
2018-05-18T00:03:51.983Z,0.00
2018-05-18T00:04:51.903Z,0.00
2018-05-18T00:05:51.818Z,0.00
2018-05-18T00:06:51.742Z,0.00
2018-05-18T00:07:51.665Z,0.00
2018-05-18T00:08:51.579Z,0.00
2018-05-18T00:09:51.504Z,0.00
2018-05-18T00:10:51.415Z,0.00
2018-05-18T00:11:51.340Z,0.00
2018-05-18T00:12:51.254Z,0.00
2018-05-18T00:13:51.179Z,0.00
2018-05-18T00:14:51.091Z,0.00
2018-05-18T00:15:51.021Z,0.00
2018-05-18T00:16:50.941Z,0.00
2018-05-18T00:17:50.854Z,0.00
2018-05-18T00:18:50.768Z,0.00
2018-05-18T00:19:50.691Z,0.00
2018-05-18T00:20:50.623Z,0.00
2018-05-18T00:21:50.529Z,0.00
2018-05-18T00:22:50.455Z,0.00
2018-05-18T00:23:50.366Z,0.00
2018-05-18T00:24:50.291Z,0.00
2018-05-18T00:25:50.205Z,0.00
2018-05-18T00:26:50.133Z,0.00
2018-05-18T00:27:50.048Z,0.00
2018-05-18T00:28:49.967Z,0.00
2018-05-18T00:29:49.881Z,0.00
2018-05-18T00:30:49.806Z,0.00
2018-05-18T00:31:49.731Z,0.00
2018-05-18T00:32:49.642Z,0.00
2018-05-18T00:33:49.567Z,0.00
2018-05-18T00:34:49.481Z,0.00
2018-05-18T00:35:49.406Z,0.00
2018-05-18T00:36:49.318Z,0.00
2018-05-18T00:37:49.243Z,0.00
2018-05-18T00:38:49.157Z,0.00
2018-05-18T00:39:49.085Z,0.00
2018-05-18T00:40:48.993Z,0.00
2018-05-18T00:41:48.918Z,0.00
2018-05-18T00:42:48.831Z,0.00
2018-05-18T00:43:48.756Z,0.00
2018-05-18T00:44:48.670Z,0.00
2018-05-18T00:45:48.593Z,0.00
2018-05-18T00:46:48.518Z,0.00
2018-05-18T00:47:48.440Z,0.00
2018-05-18T00:48:48.357Z,0.00
2018-05-18T00:49:48.269Z,0.00
2018-05-18T00:50:48.197Z,0.00
2018-05-18T00:51:48.118Z,0.00
2018-05-18T00:52:48.033Z,0.00
2018-05-18T00:53:47.956Z,0.00
2018-05-18T00:54:47.870Z,0.00
2018-05-18T00:55:47.784Z,0.00
2018-05-18T00:56:47.710Z,0.00
2018-05-18T00:57:47.620Z,0.00
2018-05-18T00:58:47.548Z,0.00
2018-05-18T00:59:47.466Z,0.00
2018-05-18T01:00:47.388Z,0.00
2018-05-18T01:01:47.296Z,0.00
2018-05-18T01:02:47.220Z,0.00
2018-05-18T01:03:47.159Z,0.00
2018-05-18T01:04:47.059Z,0.00
2018-05-18T01:05:46.983Z,0.00
2018-05-18T01:06:46.896Z,0.00
2018-05-18T01:07:46.821Z,0.00
2018-05-18T01:08:46.734Z,0.00
2018-05-18T01:09:46.660Z,0.00
2018-05-18T01:10:46.571Z,0.00
2018-05-18T01:11:46.497Z,0.00
2018-05-18T01:12:46.423Z,0.00
2018-05-18T01:13:46.334Z,0.00
2018-05-18T01:14:46.259Z,0.00
2018-05-18T01:15:46.196Z,0.00
2018-05-18T01:16:46.086Z,0.00
2018-05-18T01:17:46.010Z,0.00
2018-05-18T01:18:45.923Z,0.00
2018-05-18T01:19:45.860Z,0.00
2018-05-18T01:20:45.761Z,0.00
2018-05-18T01:21:45.686Z,0.00
2018-05-18T01:22:45.599Z,0.00
2018-05-18T01:23:45.525Z,0.00
2018-05-18T01:24:45.449Z,0.00
2018-05-18T01:25:45.361Z,0.00
2018-05-18T01:26:45.275Z,0.00
2018-05-18T01:27:45.199Z,0.00
2018-05-18T01:28:45.136Z,0.00
2018-05-18T01:29:45.037Z,0.00
2018-05-18T01:30:44.962Z,0.00
2018-05-18T01:31:44.873Z,0.00
2018-05-18T01:32:44.800Z,0.00
2018-05-18T01:33:44.713Z,0.00
2018-05-18T01:34:44.637Z,0.00
2018-05-18T01:35:44.549Z,0.00
2018-05-18T01:36:44.475Z,0.00
2018-05-18T01:37:44.388Z,0.00
2018-05-18T01:38:44.313Z,0.00
2018-05-18T01:39:44.225Z,0.00
2018-05-18T01:40:44.151Z,0.00
2018-05-18T01:41:44.063Z,0.00
2018-05-18T01:42:43.988Z,0.00
2018-05-18T01:43:43.899Z,0.00
2018-05-18T01:44:43.825Z,0.00
2018-05-18T01:45:43.738Z,0.00
2018-05-18T01:46:43.664Z,0.00
2018-05-18T01:47:43.576Z,0.00
2018-05-18T01:48:43.500Z,0.00
2018-05-18T01:49:43.413Z,0.00
2018-05-18T01:50:43.338Z,0.00
2018-05-18T01:51:43.251Z,0.00
2018-05-18T01:52:43.175Z,0.00
2018-05-18T01:53:43.089Z,0.00
2018-05-18T01:54:43.015Z,0.00
2018-05-18T01:55:42.926Z,0.00
2018-05-18T01:56:42.851Z,0.00
2018-05-18T01:57:42.765Z,0.00
2018-05-18T01:58:42.690Z,0.00
2018-05-18T01:59:42.602Z,0.00
2018-05-18T02:00:42.527Z,0.00
2018-05-18T02:01:42.441Z,0.00
2018-05-18T02:02:42.365Z,0.00
2018-05-18T02:03:42.283Z,0.00
2018-05-18T02:04:42.202Z,0.00
2018-05-18T02:05:42.115Z,0.00
2018-05-18T02:06:42.041Z,0.00
2018-05-18T02:07:41.953Z,0.00
2018-05-18T02:08:41.877Z,0.00
2018-05-18T02:09:41.791Z,0.00
2018-05-18T02:10:41.716Z,0.00
2018-05-18T02:11:41.629Z,0.00
2018-05-18T02:12:41.553Z,0.00
2018-05-18T02:13:41.468Z,0.00
2018-05-18T02:14:41.391Z,0.00
2018-05-18T02:15:41.305Z,0.00
2018-05-18T02:16:41.246Z,0.00
2018-05-18T02:17:41.142Z,0.00
2018-05-18T02:18:41.073Z,0.00
2018-05-18T02:19:40.981Z,0.00
2018-05-18T02:20:40.904Z,0.00
2018-05-18T02:21:40.818Z,0.00
2018-05-18T02:22:40.743Z,0.00
2018-05-18T02:23:40.656Z,0.00
2018-05-18T02:24:40.581Z,0.00
2018-05-18T02:25:40.497Z,0.00
2018-05-18T02:26:40.417Z,0.00
2018-05-18T02:27:40.342Z,0.00
2018-05-18T02:28:40.255Z,0.00
2018-05-18T02:29:40.172Z,0.00
2018-05-18T02:30:40.093Z,0.00
2018-05-18T02:31:40.008Z,4.00
2018-05-18T02:32:39.944Z,4.00
2018-05-18T02:33:39.845Z,0.00
2018-05-18T02:34:39.775Z,0.00
2018-05-18T02:35:39.683Z,4.00
2018-05-18T02:36:39.605Z,4.00
2018-05-18T02:37:39.519Z,4.00
2018-05-18T02:38:39.444Z,4.00
2018-05-18T02:39:39.361Z,8.00
2018-05-18T02:40:39.282Z,4.00
2018-05-18T02:41:39.195Z,8.00
2018-05-18T02:42:39.120Z,8.00
2018-05-18T02:43:39.045Z,8.00
2018-05-18T02:44:38.957Z,12.00
2018-05-18T02:45:38.871Z,12.00
2018-05-18T02:46:38.808Z,12.00
2018-05-18T02:47:38.708Z,16.00
2018-05-18T02:48:38.631Z,16.00
2018-05-18T02:49:38.545Z,20.00
2018-05-18T02:50:38.470Z,24.00
2018-05-18T02:51:38.384Z,24.00
2018-05-18T02:52:38.307Z,28.00
2018-05-18T02:53:38.223Z,32.00
2018-05-18T02:54:38.146Z,32.00
2018-05-18T02:55:38.060Z,40.00
2018-05-18T02:56:37.982Z,44.00
2018-05-18T02:57:37.896Z,48.00
2018-05-18T02:58:37.821Z,52.00
2018-05-18T02:59:37.734Z,56.00
2018-05-18T03:00:37.657Z,64.00
2018-05-18T03:01:37.570Z,68.00
2018-05-18T03:02:37.501Z,76.00
2018-05-18T03:03:37.409Z,80.00
2018-05-18T03:04:37.333Z,88.00
2018-05-18T03:05:37.248Z,92.00
2018-05-18T03:06:37.172Z,100.00
2018-05-18T03:07:37.085Z,108.00
2018-05-18T03:08:37.009Z,116.00
2018-05-18T03:09:36.921Z,124.00
2018-05-18T03:10:36.848Z,132.00
2018-05-18T03:11:36.759Z,144.00
2018-05-18T03:12:36.685Z,152.00
2018-05-18T03:13:36.597Z,160.00
2018-05-18T03:14:36.523Z,172.00
2018-05-18T03:15:36.435Z,184.00
2018-05-18T03:16:36.362Z,192.00
2018-05-18T03:17:36.273Z,204.00
2018-05-18T03:18:36.197Z,216.00
2018-05-18T03:19:36.109Z,228.00
2018-05-18T03:20:36.035Z,240.00
2018-05-18T03:21:35.950Z,248.00
2018-05-18T03:22:35.874Z,264.00
2018-05-18T03:23:35.798Z,272.00
2018-05-18T03:24:35.710Z,284.00
2018-05-18T03:25:35.623Z,304.00
2018-05-18T03:26:35.549Z,316.00
2018-05-18T03:27:35.460Z,328.00
2018-05-18T03:28:35.399Z,344.00
2018-05-18T03:29:35.303Z,356.00
2018-05-18T03:30:35.253Z,372.00
2018-05-18T03:31:35.136Z,388.00
2018-05-18T03:32:35.066Z,408.00
2018-05-18T03:33:34.975Z,424.00
2018-05-18T03:34:34.899Z,440.00
2018-05-18T03:35:34.811Z,468.00
2018-05-18T03:36:34.739Z,496.00
2018-05-18T03:37:34.650Z,528.00
2018-05-18T03:38:34.575Z,556.00
2018-05-18T03:39:34.499Z,584.00
2018-05-18T03:40:34.411Z,616.00
2018-05-18T03:41:34.324Z,656.00
2018-05-18T03:42:34.251Z,692.00
2018-05-18T03:43:34.161Z,728.00
2018-05-18T03:44:34.088Z,744.00
2018-05-18T03:45:34.000Z,764.00
2018-05-18T03:46:33.926Z,776.00
2018-05-18T03:47:33.837Z,800.00
2018-05-18T03:48:33.763Z,828.00
2018-05-18T03:49:33.676Z,856.00
2018-05-18T03:50:33.601Z,888.00
2018-05-18T03:51:33.513Z,920.00
2018-05-18T03:52:33.451Z,940.00
2018-05-18T03:53:33.351Z,952.00
2018-05-18T03:54:33.280Z,944.00
2018-05-18T03:55:33.188Z,940.00
2018-05-18T03:56:33.117Z,936.00
2018-05-18T03:57:33.027Z,940.00
2018-05-18T03:58:32.952Z,948.00
2018-05-18T03:59:32.864Z,964.00
2018-05-18T04:00:32.790Z,972.00
2018-05-18T04:01:32.702Z,996.00
2018-05-18T04:02:32.627Z,1008.00
2018-05-18T04:03:32.540Z,1040.00
2018-05-18T04:04:32.469Z,1080.00
2018-05-18T04:05:32.378Z,1116.00
2018-05-18T04:06:32.303Z,1148.00
2018-05-18T04:07:32.215Z,1156.00
2018-05-18T04:10:54.920Z,1192.00
2018-05-18T04:11:15.365Z,1232.00
2018-05-18T04:12:15.278Z,1248.00
2018-05-18T04:13:15.203Z,1256.00
2018-05-18T04:14:15.119Z,1304.00
2018-05-18T04:15:15.040Z,1388.00
2018-05-18T04:16:14.954Z,1384.00
2018-05-18T04:17:14.878Z,1424.00
2018-05-18T04:18:15.043Z,1492.00
2018-05-18T04:19:14.716Z,1536.00
2018-05-18T04:20:14.641Z,1544.00
2018-05-18T04:21:14.556Z,1568.00
2018-05-18T04:22:14.466Z,1628.00
2018-05-18T04:23:14.392Z,1652.00
2018-05-18T04:24:14.308Z,1628.00
2018-05-18T04:25:14.231Z,1684.00
2018-05-18T04:26:14.142Z,1712.00
2018-05-18T04:27:14.068Z,1812.00
2018-05-18T04:28:13.980Z,1812.00
2018-05-18T04:29:13.905Z,1852.00
2018-05-18T04:30:13.933Z,1984.00
2018-05-18T04:31:13.745Z,2080.00
2018-05-18T04:32:13.658Z,2264.00
2018-05-18T04:33:13.581Z,2360.00
2018-05-18T04:34:13.494Z,2572.00
2018-05-18T04:35:13.431Z,2472.00
2018-05-18T04:36:13.335Z,2664.00
2018-05-18T04:37:13.261Z,2676.00
2018-05-18T04:38:13.172Z,2696.00
2018-05-18T04:39:13.093Z,2932.00
2018-05-18T04:40:13.007Z,2580.00
2018-05-18T04:41:12.932Z,3096.00
2018-05-18T04:42:12.845Z,2652.00
2018-05-18T04:43:13.082Z,2804.00
2018-05-18T04:44:12.693Z,2840.00
2018-05-18T04:45:12.607Z,2856.00
2018-05-18T04:46:12.535Z,2944.00
2018-05-18T04:47:12.444Z,3100.00
2018-05-18T04:48:12.369Z,3268.00
2018-05-18T04:49:12.283Z,3160.00
2018-05-18T04:50:12.212Z,3168.00
2018-05-18T04:51:12.120Z,3344.00
2018-05-18T04:52:12.045Z,3060.00
2018-05-18T04:53:11.958Z,3276.00
2018-05-18T04:54:11.883Z,3320.00
2018-05-18T04:55:11.800Z,3124.00
2018-05-18T04:56:11.720Z,3204.00
2018-05-18T04:57:11.658Z,3488.00
2018-05-18T04:58:11.559Z,3368.00
2018-05-18T04:59:11.484Z,3404.00
2018-05-18T05:00:11.397Z,3584.00
2018-05-18T05:01:11.321Z,3748.00
2018-05-18T05:02:11.234Z,3544.00
2018-05-18T05:03:11.159Z,3672.00
2018-05-18T05:04:11.075Z,3692.00
2018-05-18T05:05:10.996Z,3736.00
2018-05-18T05:06:10.921Z,4208.00
2018-05-18T05:07:10.835Z,3936.00
2018-05-18T05:08:10.759Z,3948.00
2018-05-18T05:09:10.671Z,3912.00
2018-05-18T05:10:10.597Z,3684.00
2018-05-18T05:11:10.510Z,3588.00
2018-05-18T05:12:10.435Z,3576.00
2018-05-18T05:13:10.360Z,3636.00
2018-05-18T05:14:10.272Z,4112.00
2018-05-18T05:15:10.197Z,4284.00
2018-05-18T05:16:10.122Z,4372.00
2018-05-18T05:17:10.036Z,4560.00
2018-05-18T05:18:10.198Z,4608.00
2018-05-18T05:19:09.872Z,4580.00
2018-05-18T05:20:09.797Z,5044.00
2018-05-18T05:21:09.712Z,5124.00
2018-05-18T05:22:09.636Z,5172.00
2018-05-18T05:23:09.547Z,5636.00
2018-05-18T05:24:09.473Z,5344.00
2018-05-18T05:25:09.398Z,5272.00
2018-05-18T05:26:09.312Z,5316.00
2018-05-18T05:27:09.236Z,5160.00
2018-05-18T05:28:09.148Z,5208.00
2018-05-18T05:29:09.073Z,5592.00
2018-05-18T05:30:09.002Z,5476.00
2018-05-18T05:31:08.912Z,5328.00
2018-05-18T05:32:08.837Z,5896.00
2018-05-18T05:33:08.749Z,5692.00
2018-05-18T05:34:08.674Z,5564.00
2018-05-18T05:35:08.588Z,6132.00
2018-05-18T05:36:08.513Z,5836.00
2018-05-18T05:37:08.441Z,4956.00
2018-05-18T05:38:08.357Z,5788.00
2018-05-18T05:39:08.275Z,5992.00
2018-05-18T05:40:08.214Z,5672.00
2018-05-18T05:41:08.114Z,5704.00
2018-05-18T05:42:08.043Z,6484.00
2018-05-18T05:43:07.950Z,6280.00
2018-05-18T05:44:07.885Z,5868.00
2018-05-18T05:45:07.803Z,5724.00
2018-05-18T05:46:07.713Z,5852.00
2018-05-18T05:47:07.642Z,5676.00
2018-05-18T05:48:07.552Z,5728.00
2018-05-18T05:49:07.476Z,5928.00
2018-05-18T05:50:07.401Z,5552.00
2018-05-18T05:51:07.315Z,5028.00
2018-05-18T05:52:07.246Z,5448.00
2018-05-18T05:53:07.165Z,5620.00
2018-05-18T05:54:07.076Z,6632.00
2018-05-18T05:55:07.001Z,6640.00
2018-05-18T05:56:06.915Z,5624.00
2018-05-18T05:57:06.839Z,5444.00
2018-05-18T05:58:06.764Z,5940.00
2018-05-18T05:59:06.677Z,5272.00
2018-05-18T06:00:06.602Z,4900.00
2018-05-18T06:01:06.540Z,5616.00
2018-05-18T06:02:06.440Z,6080.00
2018-05-18T06:03:06.368Z,5680.00
2018-05-18T06:04:06.278Z,5788.00
2018-05-18T06:05:06.203Z,5580.00
2018-05-18T06:06:06.142Z,5332.00
2018-05-18T06:07:06.046Z,5336.00
2018-05-18T06:08:05.967Z,5352.00
2018-05-18T06:09:05.890Z,6656.00
2018-05-18T06:10:05.803Z,5848.00
2018-05-18T06:11:05.728Z,5596.00
2018-05-18T06:12:05.731Z,6332.00
2018-05-18T06:13:05.569Z,5736.00
2018-05-18T06:14:05.492Z,5548.00
2018-05-18T06:15:05.403Z,5668.00
2018-05-18T06:16:05.330Z,5976.00
2018-05-18T06:17:05.255Z,5784.00
2018-05-18T06:18:05.167Z,5208.00
2018-05-18T06:19:05.092Z,5316.00
2018-05-18T06:20:05.006Z,5524.00
2018-05-18T06:21:04.929Z,5152.00
2018-05-18T06:22:04.854Z,5580.00
2018-05-18T06:23:04.768Z,5852.00
2018-05-18T06:24:04.693Z,6036.00
2018-05-18T06:25:04.618Z,6524.00
2018-05-18T06:26:04.530Z,6140.00
2018-05-18T06:27:04.455Z,6248.00
2018-05-18T06:28:04.380Z,6152.00
2018-05-18T06:29:04.293Z,6044.00
2018-05-18T06:30:04.221Z,6588.00
2018-05-18T06:31:04.131Z,6204.00
2018-05-18T06:32:04.055Z,6304.00
2018-05-18T06:33:03.980Z,6992.00
2018-05-18T06:34:03.905Z,6320.00
2018-05-18T06:35:03.832Z,7192.00
2018-05-18T06:36:03.744Z,7780.00
2018-05-18T06:37:03.656Z,6968.00
2018-05-18T06:38:03.580Z,6944.00
2018-05-18T06:39:03.506Z,7564.00
2018-05-18T06:40:03.420Z,7124.00
2018-05-18T06:41:03.346Z,6696.00
2018-05-18T06:42:03.257Z,6428.00
2018-05-18T06:43:03.182Z,7328.00
2018-05-18T06:44:03.108Z,6788.00
2018-05-18T06:45:03.020Z,7348.00
2018-05-18T06:46:02.945Z,7128.00
2018-05-18T06:47:02.869Z,7700.00
2018-05-18T06:48:02.784Z,6692.00
2018-05-18T06:49:02.707Z,6560.00
2018-05-18T06:50:02.634Z,6684.00
2018-05-18T06:51:02.544Z,6968.00
2018-05-18T06:52:02.469Z,7276.00
2018-05-18T06:53:02.382Z,8016.00
2018-05-18T06:54:02.307Z,7804.00
2018-05-18T06:55:02.231Z,8140.00
2018-05-18T06:56:02.144Z,9460.00
2018-05-18T06:57:02.069Z,7596.00
2018-05-18T06:58:01.994Z,7652.00
2018-05-18T06:59:01.908Z,8036.00
2018-05-18T07:00:01.831Z,7668.00
2018-05-18T07:01:01.759Z,7424.00
2018-05-18T07:02:01.670Z,8096.00
2018-05-18T07:03:01.845Z,7584.00
2018-05-18T07:04:01.569Z,7668.00
2018-05-18T07:05:01.432Z,8508.00
2018-05-18T07:06:01.356Z,8200.00
2018-05-18T07:07:01.295Z,8280.00
2018-05-18T07:08:01.195Z,9176.00
2018-05-18T07:09:01.124Z,8544.00
2018-05-18T07:10:01.045Z,8156.00
2018-05-18T07:11:00.958Z,8432.00
2018-05-18T07:12:00.895Z,8848.00
2018-05-18T07:13:00.807Z,8380.00
2018-05-18T07:14:00.723Z,8736.00
2018-05-18T07:15:00.646Z,8780.00
2018-05-18T07:16:00.571Z,8456.00
2018-05-18T07:17:00.483Z,9052.00
2018-05-18T07:18:00.407Z,9328.00
2018-05-18T07:19:00.333Z,9852.00
2018-05-18T07:20:00.245Z,9856.00
2018-05-18T07:21:00.171Z,9588.00
2018-05-18T07:22:00.146Z,9400.00
2018-05-18T07:23:00.030Z,9388.00
2018-05-18T07:23:59.933Z,9764.00
2018-05-18T07:24:59.859Z,9748.00
2018-05-18T07:25:59.783Z,10052.00
2018-05-18T07:26:59.696Z,10048.00
2018-05-18T07:27:59.622Z,10628.00
2018-05-18T07:28:59.550Z,10980.00
2018-05-18T07:29:59.466Z,10236.00
2018-05-18T07:30:59.384Z,10912.00
2018-05-18T07:31:59.309Z,11684.00
2018-05-18T07:32:59.234Z,12644.00
2018-05-18T07:33:59.148Z,12064.00
2018-05-18T07:34:59.074Z,11404.00
2018-05-18T07:36:02.024Z,12288.00
2018-05-18T07:37:00.125Z,13112.00
2018-05-18T07:37:59.085Z,11212.00
2018-05-18T07:38:58.760Z,13856.00
2018-05-18T07:39:58.691Z,13028.00
2018-05-18T07:40:58.598Z,14748.00
2018-05-18T07:41:58.524Z,12600.00
2018-05-18T07:42:58.449Z,11812.00
2018-05-18T07:43:58.422Z,12208.00
2018-05-18T07:44:58.286Z,12116.00
2018-05-18T07:45:58.812Z,11832.00
2018-05-18T07:46:58.136Z,12224.00
2018-05-18T07:47:58.049Z,12972.00
2018-05-18T07:48:57.976Z,12608.00
2018-05-18T07:49:57.899Z,13080.00
2018-05-18T07:50:57.825Z,14892.00
2018-05-18T07:51:57.741Z,14488.00
2018-05-18T07:52:57.665Z,15280.00
2018-05-18T07:53:57.590Z,15872.00
2018-05-18T07:54:57.516Z,17024.00
2018-05-18T07:55:57.426Z,18432.00
2018-05-18T07:56:57.358Z,15428.00
2018-05-18T07:57:57.276Z,14284.00
2018-05-18T07:58:57.201Z,14456.00
2018-05-18T07:59:57.127Z,14844.00
2018-05-18T08:00:57.039Z,13192.00
2018-05-18T08:01:56.967Z,13072.00
2018-05-18T08:02:56.888Z,13912.00
2018-05-18T08:03:57.767Z,15300.00
2018-05-18T08:04:56.939Z,15392.00
2018-05-18T08:05:56.668Z,14152.00
2018-05-18T08:06:56.577Z,14964.00
2018-05-18T08:07:56.596Z,14204.00
2018-05-18T08:08:56.428Z,12636.00
2018-05-18T08:09:56.354Z,14720.00
2018-05-18T08:10:56.278Z,15172.00
2018-05-18T08:11:56.202Z,12316.00
2018-05-18T08:12:56.128Z,13996.00
2018-05-18T08:13:56.040Z,17312.00
2018-05-18T08:14:55.978Z,17152.00
2018-05-18T08:15:55.890Z,18080.00
2018-05-18T08:17:37.941Z,16108.00
2018-05-18T08:18:41.690Z,17824.00
2018-05-18T08:19:37.779Z,16456.00
2018-05-18T08:20:37.704Z,18592.00
2018-05-18T08:21:37.695Z,15520.00
2018-05-18T08:22:37.555Z,16488.00
2018-05-18T08:23:37.479Z,15052.00
2018-05-18T08:25:22.143Z,14972.00
2018-05-18T08:26:19.539Z,15696.00
2018-05-18T08:27:19.369Z,15092.00
2018-05-18T08:28:19.298Z,15772.00
2018-05-18T08:29:19.216Z,15240.00
2018-05-18T08:30:19.143Z,17536.00
2018-05-18T08:31:19.068Z,17728.00
2018-05-18T08:32:19.005Z,17536.00
2018-05-18T08:33:18.917Z,15708.00
2018-05-18T08:34:18.831Z,16508.00
2018-05-18T08:36:00.881Z,15860.00
2018-05-18T08:37:00.805Z,15908.00
2018-05-18T08:38:00.731Z,12968.00
2018-05-18T08:39:00.656Z,12460.00
2018-05-18T08:40:03.206Z,11772.00
2018-05-18T08:41:00.507Z,12744.00
2018-05-18T08:42:00.427Z,13156.00
2018-05-18T08:43:00.344Z,13792.00
2018-05-18T08:44:00.278Z,13456.00
2018-05-18T08:45:00.194Z,13308.00
2018-05-18T08:46:00.120Z,12124.00
2018-05-18T08:47:42.158Z,11896.00
2018-05-18T08:48:42.082Z,11696.00
2018-05-18T08:49:42.007Z,10764.00
2018-05-18T08:50:41.933Z,11652.00
2018-05-18T08:51:41.858Z,11796.00
2018-05-18T08:52:41.789Z,10388.00
2018-05-18T08:53:41.708Z,11220.00
2018-05-18T08:54:41.620Z,11064.00
2018-05-18T08:55:41.547Z,11212.00
2018-05-18T08:56:41.470Z,11772.00
2018-05-18T08:57:41.395Z,11940.00
2018-05-18T08:59:23.433Z,12472.00
2018-05-18T09:00:23.363Z,12572.00
2018-05-18T09:01:23.290Z,12320.00
2018-05-18T09:03:50.271Z,11092.00
2018-05-18T09:04:47.372Z,11712.00
2018-05-18T09:10:00.285Z,12424.00
2018-05-18T09:11:00.210Z,11188.00
2018-05-18T09:12:00.138Z,11412.00
2018-05-18T09:13:00.061Z,10792.00
2018-05-18T09:13:59.974Z,11236.00
2018-05-18T09:14:59.897Z,12140.00
2018-05-18T09:15:59.833Z,12248.00
2018-05-18T09:16:59.748Z,12528.00
2018-05-18T09:17:59.672Z,13172.00
2018-05-18T09:18:59.586Z,13476.00
2018-05-18T09:19:59.511Z,13656.00
2018-05-18T09:20:59.437Z,13544.00
2018-05-18T09:21:59.364Z,12944.00
2018-05-18T09:22:59.286Z,12788.00
2018-05-18T09:23:59.198Z,13812.00
2018-05-18T09:24:59.127Z,14036.00
2018-05-18T09:25:59.048Z,13532.00
2018-05-18T09:26:58.989Z,13984.00
2018-05-18T09:27:58.902Z,13524.00
2018-05-18T09:28:58.827Z,12768.00
2018-05-18T09:29:58.737Z,13136.00
2018-05-18T09:30:58.662Z,13144.00
2018-05-18T09:31:58.590Z,13232.00
2018-05-18T09:32:58.507Z,12820.00
2018-05-18T09:33:58.429Z,12660.00
2018-05-18T09:34:58.350Z,12836.00
2018-05-18T09:35:58.274Z,13240.00
2018-05-18T09:36:58.206Z,14448.00
2018-05-18T09:37:58.125Z,13584.00
2018-05-18T09:38:58.038Z,13884.00
2018-05-18T09:39:57.970Z,14748.00
2018-05-18T09:40:57.887Z,15324.00
2018-05-18T09:41:57.814Z,14288.00
2018-05-18T09:42:57.738Z,13556.00
2018-05-18T09:43:57.653Z,15252.00
2018-05-18T09:44:57.574Z,15196.00
2018-05-18T09:45:57.501Z,15056.00
2018-05-18T09:46:57.425Z,14728.00
2018-05-18T09:47:57.351Z,14164.00
2018-05-18T09:48:57.265Z,15100.00
2018-05-18T09:49:57.189Z,15072.00
2018-05-18T09:50:57.114Z,14572.00
2018-05-18T09:51:57.040Z,14464.00
2018-05-18T09:52:56.971Z,13920.00
2018-05-18T09:53:56.996Z,14792.00
2018-05-18T09:54:56.979Z,14828.00
2018-05-18T09:55:56.726Z,14064.00
2018-05-18T09:56:56.664Z,12600.00
2018-05-18T09:57:56.576Z,12680.00
2018-05-18T09:58:56.501Z,13140.00
2018-05-18T09:59:56.427Z,14140.00
2018-05-18T10:00:56.340Z,14668.00
2018-05-18T10:01:56.266Z,13728.00
2018-05-18T10:02:56.190Z,11956.00
2018-05-18T10:03:56.116Z,11828.00
2018-05-18T10:04:56.041Z,11960.00
2018-05-18T10:05:55.965Z,11916.00
2018-05-18T10:06:55.903Z,12616.00
2018-05-18T10:07:55.806Z,14152.00
2018-05-18T10:08:55.727Z,15080.00
2018-05-18T10:09:55.652Z,14284.00
2018-05-18T10:10:55.577Z,14196.00
2018-05-18T10:11:55.502Z,14040.00
2018-05-18T10:12:55.415Z,13848.00
2018-05-18T10:13:55.347Z,14784.00
2018-05-18T10:14:55.266Z,14816.00
2018-05-18T10:15:55.191Z,14116.00
2018-05-18T10:16:55.116Z,13572.00
2018-05-18T10:17:55.044Z,12968.00
2018-05-18T10:18:54.955Z,12428.00
2018-05-18T10:19:54.879Z,11872.00
2018-05-18T10:20:54.803Z,11752.00
2018-05-18T10:21:54.728Z,12364.00
2018-05-18T10:22:54.653Z,12776.00
2018-05-18T10:23:54.578Z,13056.00
2018-05-18T10:24:54.504Z,14052.00
2018-05-18T10:25:54.417Z,15316.00
2018-05-18T10:26:54.351Z,15032.00
2018-05-18T10:27:54.267Z,13932.00
2018-05-18T10:28:54.192Z,13900.00
2018-05-18T10:29:54.121Z,14012.00
2018-05-18T10:30:54.043Z,14184.00
2018-05-18T10:31:53.966Z,14408.00
2018-05-18T10:32:53.951Z,16136.00
2018-05-18T10:33:53.804Z,15300.00
2018-05-18T10:34:53.743Z,14064.00
2018-05-18T10:35:53.654Z,15868.00
2018-05-18T10:36:53.580Z,17760.00
2018-05-18T10:37:53.505Z,15672.00
2018-05-18T10:38:53.443Z,15780.00
2018-05-18T10:39:53.343Z,19552.00
2018-05-18T10:40:53.268Z,19648.00
2018-05-18T10:41:53.205Z,15732.00
2018-05-18T10:42:53.118Z,15436.00
2018-05-18T10:43:53.044Z,15940.00
2018-05-18T10:44:52.971Z,17408.00
2018-05-18T10:45:52.894Z,15608.00
2018-05-18T10:46:52.819Z,14572.00
2018-05-18T10:47:52.745Z,14572.00
2018-05-18T10:48:52.658Z,15800.00
2018-05-18T10:49:52.582Z,15040.00
2018-05-18T10:50:52.510Z,13380.00
2018-05-18T10:51:52.445Z,13884.00
2018-05-18T10:52:52.360Z,14852.00
2018-05-18T10:53:52.282Z,13844.00
2018-05-18T10:54:52.210Z,13752.00
2018-05-18T10:55:52.133Z,15428.00
2018-05-18T10:56:52.057Z,16040.00
2018-05-18T10:57:51.983Z,17376.00
2018-05-18T10:58:51.908Z,15864.00
2018-05-18T10:59:51.822Z,14984.00
2018-05-18T11:00:51.746Z,14800.00
2018-05-18T11:01:51.670Z,14512.00
2018-05-18T11:02:51.595Z,14288.00
2018-05-18T11:03:51.526Z,14020.00
2018-05-18T11:04:51.447Z,13236.00
2018-05-18T11:05:51.372Z,13596.00
2018-05-18T11:06:51.361Z,13496.00
2018-05-18T11:07:51.224Z,13896.00
2018-05-18T11:08:51.147Z,14792.00
2018-05-18T11:09:51.076Z,13480.00
2018-05-18T11:10:50.985Z,12820.00
2018-05-18T11:11:50.909Z,13268.00
2018-05-18T11:12:50.833Z,13652.00
2018-05-18T11:13:50.764Z,14216.00
2018-05-18T11:14:50.686Z,16068.00
2018-05-18T11:15:50.609Z,16804.00
2018-05-18T11:16:50.534Z,15192.00
2018-05-18T11:17:50.461Z,13864.00
2018-05-18T11:18:50.373Z,13504.00
2018-05-18T11:19:50.298Z,13620.00
2018-05-18T11:20:50.226Z,13464.00
2018-05-18T11:21:50.148Z,13632.00
2018-05-18T11:22:50.076Z,13996.00
2018-05-18T11:23:49.999Z,14196.00
2018-05-18T11:24:49.925Z,14120.00
2018-05-18T11:25:49.887Z,13380.00
2018-05-18T11:26:49.762Z,12680.00
2018-05-18T11:27:49.686Z,12652.00
2018-05-18T11:28:49.610Z,12172.00
2018-05-18T11:29:49.611Z,11420.00
2018-05-18T11:30:49.461Z,11596.00
2018-05-18T11:31:49.387Z,11900.00
2018-05-18T11:32:49.311Z,12036.00
2018-05-18T11:33:49.236Z,12532.00
2018-05-18T11:34:49.150Z,13368.00
2018-05-18T11:35:49.075Z,14104.00
2018-05-18T11:36:49.000Z,14192.00
2018-05-18T11:37:48.930Z,12984.00
2018-05-18T11:38:48.850Z,12800.00
2018-05-18T11:39:48.774Z,12820.00
2018-05-18T11:40:48.700Z,13388.00
2018-05-18T11:41:48.626Z,13912.00
2018-05-18T11:42:48.538Z,13896.00
2018-05-18T11:43:48.466Z,15964.00
2018-05-18T11:44:48.399Z,17504.00
2018-05-18T11:45:48.312Z,16676.00
2018-05-18T11:46:48.237Z,16852.00
2018-05-18T11:47:48.162Z,16616.00
2018-05-18T11:48:48.101Z,14968.00
2018-05-18T11:49:48.012Z,12236.00
2018-05-18T11:50:47.932Z,11676.00
2018-05-18T11:51:47.851Z,12396.00
2018-05-18T11:52:47.776Z,12216.00
2018-05-18T11:53:47.707Z,11216.00
2018-05-18T11:54:47.675Z,10860.00
2018-05-18T11:55:47.551Z,10936.00
2018-05-18T11:56:47.476Z,11620.00
2018-05-18T11:57:47.402Z,12152.00
2018-05-18T11:58:47.314Z,11632.00
2018-05-18T11:59:47.238Z,11904.00
2018-05-18T12:00:47.164Z,13212.00
2018-05-18T12:01:47.091Z,14164.00
2018-05-18T12:02:47.015Z,15652.00
2018-05-18T12:03:46.940Z,15532.00
2018-05-18T12:04:46.864Z,15340.00
2018-05-18T12:05:46.803Z,16492.00
2018-05-18T12:06:46.703Z,15944.00
2018-05-18T12:07:46.633Z,15252.00
2018-05-18T12:08:46.554Z,14248.00
2018-05-18T12:09:46.480Z,14376.00
2018-05-18T12:10:46.404Z,13832.00
2018-05-18T12:11:46.335Z,12872.00
2018-05-18T12:12:46.254Z,13628.00
2018-05-18T12:13:46.179Z,16292.00
2018-05-18T12:14:46.104Z,14808.00
2018-05-18T12:15:46.016Z,11964.00
2018-05-18T12:16:45.945Z,11076.00
2018-05-18T12:17:45.866Z,11408.00
2018-05-18T12:18:45.792Z,11972.00
2018-05-18T12:19:45.717Z,11780.00
2018-05-18T12:20:45.641Z,11412.00
2018-05-18T12:21:45.570Z,11792.00
2018-05-18T12:22:45.492Z,11432.00
2018-05-18T12:23:45.405Z,10964.00
2018-05-18T12:24:45.330Z,10868.00